This is the latest recevied weather packets stored in our database for station/object EA3CO-11. If no packets are shown the sender has not sent any weather packets the latest 10 day(s).
| Time | Temp. | Humidity | Pressure | Rain* | Wind** | Luminosity | Snow |
|---|---|---|---|---|---|---|---|
| 1777276052 | 21.11° C | 54% | 1021.2 hPa | - | - | - | - |
| 1777275152 | 21.11° C | 55% | 1021.2 hPa | - | - | - | - |
| 1777274252 | 20.56° C | 56% | 1021.3 hPa | - | - | - | - |
| 1777273352 | 20° C | 58% | 1021.3 hPa | - | - | - | - |
| 1777271552 | 18.33° C | 64% | 1021.1 hPa | - | - | - | - |
| 1777270651 | 18.33° C | 64% | 1021.1 hPa | - | - | - | - |
| 1777269751 | 18.33° C | 62% | 1021.1 hPa | - | - | - | - |
| 1777268851 | 18.33° C | 63% | 1020.8 hPa | - | - | - | - |
| 1777267951 | 18.33° C | 61% | 1020.7 hPa | - | - | - | - |
| 1777267051 | 17.78° C | 63% | 1020.7 hPa | - | - | - | - |
| 1777266151 | 16.67° C | 66% | 1020.6 hPa | - | - | - | - |
| 1777265251 | 16.67° C | 66% | 1020.6 hPa | - | - | - | - |
| 1777264351 | 17.22° C | 65% | 1020.4 hPa | - | - | - | - |
| 1777263450 | 17.78° C | 65% | 1020.3 hPa | - | - | - | - |
| 1777262550 | 17.78° C | 63% | 1020.2 hPa | - | - | - | - |
| 1777261650 | 17.78° C | 65% | 1020.2 hPa | - | - | - | - |
| 1777260750 | 17.78° C | 63% | 1020.3 hPa | - | - | - | - |
| 1777259850 | 17.78° C | 61% | 1020.2 hPa | - | - | - | - |
| 1777258050 | 17.78° C | 60% | 1020.4 hPa | - | - | - | - |
| 1777257150 | 17.78° C | 56% | 1020.4 hPa | - | - | - | - |
| 1777256250 | 17.78° C | 54% | 1020.3 hPa | - | - | - | - |
* Rain since midnight (hover to see other rain measurements)
** Current wind speed in m/s (hover to see current wind gust speed)